sensor_id;sensor_type;location;lat;lon;timestamp;P1;durP1;ratioP1;P2;durP2;ratioP2
12076;SDS011;12420;42.676;23.262;2023-11-21T00:01:17;17.40;;;10.27;;
12076;SDS011;12420;42.676;23.262;2023-11-21T00:03:44;14.50;;;10.07;;
12076;SDS011;12420;42.676;23.262;2023-11-21T00:06:11;16.10;;;10.50;;
12076;SDS011;12420;42.676;23.262;2023-11-21T00:08:39;16.10;;;10.63;;
12076;SDS011;12420;42.676;23.262;2023-11-21T00:11:06;15.37;;;9.90;;
12076;SDS011;12420;42.676;23.262;2023-11-21T00:13:33;13.67;;;9.80;;
12076;SDS011;12420;42.676;23.262;2023-11-21T00:16:00;13.93;;;9.43;;
12076;SDS011;12420;42.676;23.262;2023-11-21T00:18:27;16.23;;;10.37;;
12076;SDS011;12420;42.676;23.262;2023-11-21T00:20:53;15.70;;;10.50;;
12076;SDS011;12420;42.676;23.262;2023-11-21T00:23:20;13.50;;;9.57;;
12076;SDS011;12420;42.676;23.262;2023-11-21T00:25:48;15.07;;;10.03;;
12076;SDS011;12420;42.676;23.262;2023-11-21T00:28:15;13.33;;;9.33;;
12076;SDS011;12420;42.676;23.262;2023-11-21T00:30:42;12.90;;;9.47;;
12076;SDS011;12420;42.676;23.262;2023-11-21T00:33:08;13.17;;;9.17;;
12076;SDS011;12420;42.676;23.262;2023-11-21T00:35:35;14.17;;;9.83;;
12076;SDS011;12420;42.676;23.262;2023-11-21T00:38:02;16.13;;;9.63;;
12076;SDS011;12420;42.676;23.262;2023-11-21T00:40:29;16.90;;;9.60;;
12076;SDS011;12420;42.676;23.262;2023-11-21T00:42:58;14.40;;;9.90;;
12076;SDS011;12420;42.676;23.262;2023-11-21T00:45:24;16.40;;;10.57;;
12076;SDS011;12420;42.676;23.262;2023-11-21T00:47:51;15.17;;;10.97;;
12076;SDS011;12420;42.676;23.262;2023-11-21T00:50:18;18.27;;;11.53;;
12076;SDS011;12420;42.676;23.262;2023-11-21T00:52:45;17.27;;;11.97;;
12076;SDS011;12420;42.676;23.262;2023-11-21T00:55:12;19.47;;;12.43;;
12076;SDS011;12420;42.676;23.262;2023-11-21T00:57:39;20.77;;;12.10;;
12076;SDS011;12420;42.676;23.262;2023-11-21T01:00:08;19.80;;;11.93;;
12076;SDS011;12420;42.676;23.262;2023-11-21T01:02:39;22.13;;;12.63;;
12076;SDS011;12420;42.676;23.262;2023-11-21T01:05:06;18.93;;;12.33;;
12076;SDS011;12420;42.676;23.262;2023-11-21T01:07:33;21.60;;;11.93;;
12076;SDS011;12420;42.676;23.262;2023-11-21T01:10:01;20.23;;;12.40;;
12076;SDS011;12420;42.676;23.262;2023-11-21T01:12:30;17.57;;;11.40;;
12076;SDS011;12420;42.676;23.262;2023-11-21T01:14:57;19.67;;;11.43;;
12076;SDS011;12420;42.676;23.262;2023-11-21T01:17:27;17.83;;;11.97;;
12076;SDS011;12420;42.676;23.262;2023-11-21T01:19:53;21.97;;;13.83;;
12076;SDS011;12420;42.676;23.262;2023-11-21T01:22:21;20.13;;;13.30;;
12076;SDS011;12420;42.676;23.262;2023-11-21T01:24:51;21.47;;;13.90;;
12076;SDS011;12420;42.676;23.262;2023-11-21T01:27:18;19.67;;;14.40;;
12076;SDS011;12420;42.676;23.262;2023-11-21T01:29:45;22.87;;;14.97;;
12076;SDS011;12420;42.676;23.262;2023-11-21T01:32:11;21.40;;;14.70;;
12076;SDS011;12420;42.676;23.262;2023-11-21T01:34:40;18.17;;;12.83;;
12076;SDS011;12420;42.676;23.262;2023-11-21T01:37:06;24.13;;;14.60;;
12076;SDS011;12420;42.676;23.262;2023-11-21T01:39:34;21.53;;;13.00;;
12076;SDS011;12420;42.676;23.262;2023-11-21T01:42:00;19.97;;;11.07;;
12076;SDS011;12420;42.676;23.262;2023-11-21T01:44:27;16.33;;;11.47;;
12076;SDS011;12420;42.676;23.262;2023-11-21T01:46:54;16.97;;;12.03;;
12076;SDS011;12420;42.676;23.262;2023-11-21T01:49:22;20.07;;;12.33;;
12076;SDS011;12420;42.676;23.262;2023-11-21T01:51:51;16.33;;;10.63;;
12076;SDS011;12420;42.676;23.262;2023-11-21T01:54:18;13.63;;;10.00;;
12076;SDS011;12420;42.676;23.262;2023-11-21T01:56:46;13.60;;;9.20;;
12076;SDS011;12420;42.676;23.262;2023-11-21T01:59:14;14.67;;;10.13;;
12076;SDS011;12420;42.676;23.262;2023-11-21T02:01:44;14.20;;;10.93;;
12076;SDS011;12420;42.676;23.262;2023-11-21T02:04:12;22.27;;;16.80;;
12076;SDS011;12420;42.676;23.262;2023-11-21T02:06:39;16.27;;;10.53;;
12076;SDS011;12420;42.676;23.262;2023-11-21T02:09:07;14.17;;;7.83;;
12076;SDS011;12420;42.676;23.262;2023-11-21T02:11:34;9.97;;;7.30;;
12076;SDS011;12420;42.676;23.262;2023-11-21T02:14:04;11.17;;;8.60;;
12076;SDS011;12420;42.676;23.262;2023-11-21T02:16:32;11.77;;;8.50;;
12076;SDS011;12420;42.676;23.262;2023-11-21T02:19:00;10.67;;;8.00;;
12076;SDS011;12420;42.676;23.262;2023-11-21T02:21:28;11.83;;;8.07;;
12076;SDS011;12420;42.676;23.262;2023-11-21T02:23:58;12.60;;;8.60;;
12076;SDS011;12420;42.676;23.262;2023-11-21T02:26:25;13.17;;;8.27;;
12076;SDS011;12420;42.676;23.262;2023-11-21T02:28:52;12.27;;;7.60;;
12076;SDS011;12420;42.676;23.262;2023-11-21T02:31:19;12.40;;;8.43;;
12076;SDS011;12420;42.676;23.262;2023-11-21T02:33:46;10.83;;;7.70;;
12076;SDS011;12420;42.676;23.262;2023-11-21T02:36:13;12.20;;;7.83;;
12076;SDS011;12420;42.676;23.262;2023-11-21T02:38:39;12.50;;;8.13;;
12076;SDS011;12420;42.676;23.262;2023-11-21T02:41:08;12.00;;;7.50;;
12076;SDS011;12420;42.676;23.262;2023-11-21T02:43:34;9.40;;;6.90;;
12076;SDS011;12420;42.676;23.262;2023-11-21T02:46:03;9.87;;;6.70;;
12076;SDS011;12420;42.676;23.262;2023-11-21T02:48:31;13.93;;;7.97;;
12076;SDS011;12420;42.676;23.262;2023-11-21T02:50:59;10.00;;;6.70;;
12076;SDS011;12420;42.676;23.262;2023-11-21T02:53:25;10.03;;;7.80;;
12076;SDS011;12420;42.676;23.262;2023-11-21T02:55:52;11.47;;;7.37;;
12076;SDS011;12420;42.676;23.262;2023-11-21T02:58:20;12.83;;;7.57;;
12076;SDS011;12420;42.676;23.262;2023-11-21T03:00:47;11.93;;;7.13;;
12076;SDS011;12420;42.676;23.262;2023-11-21T03:03:14;12.03;;;7.20;;
12076;SDS011;12420;42.676;23.262;2023-11-21T03:05:40;11.17;;;7.37;;
12076;SDS011;12420;42.676;23.262;2023-11-21T03:08:08;11.40;;;7.20;;
12076;SDS011;12420;42.676;23.262;2023-11-21T03:10:35;12.83;;;7.90;;
12076;SDS011;12420;42.676;23.262;2023-11-21T03:13:02;10.00;;;6.90;;
12076;SDS011;12420;42.676;23.262;2023-11-21T03:15:30;10.47;;;7.77;;
12076;SDS011;12420;42.676;23.262;2023-11-21T03:17:57;9.83;;;7.53;;
12076;SDS011;12420;42.676;23.262;2023-11-21T03:20:24;11.10;;;8.07;;
12076;SDS011;12420;42.676;23.262;2023-11-21T03:22:52;13.70;;;8.50;;
12076;SDS011;12420;42.676;23.262;2023-11-21T03:25:19;16.30;;;10.87;;
12076;SDS011;12420;42.676;23.262;2023-11-21T03:27:49;15.93;;;8.53;;
12076;SDS011;12420;42.676;23.262;2023-11-21T03:30:16;12.33;;;7.80;;
12076;SDS011;12420;42.676;23.262;2023-11-21T03:32:45;15.77;;;8.77;;
12076;SDS011;12420;42.676;23.262;2023-11-21T03:35:11;13.07;;;9.30;;
12076;SDS011;12420;42.676;23.262;2023-11-21T03:37:38;12.83;;;8.83;;
12076;SDS011;12420;42.676;23.262;2023-11-21T03:40:07;15.90;;;9.63;;
12076;SDS011;12420;42.676;23.262;2023-11-21T03:42:34;14.10;;;9.07;;
12076;SDS011;12420;42.676;23.262;2023-11-21T03:45:01;13.67;;;9.47;;
12076;SDS011;12420;42.676;23.262;2023-11-21T03:47:29;12.70;;;9.23;;
12076;SDS011;12420;42.676;23.262;2023-11-21T03:49:57;10.80;;;8.07;;
12076;SDS011;12420;42.676;23.262;2023-11-21T03:52:24;11.20;;;8.17;;
12076;SDS011;12420;42.676;23.262;2023-11-21T03:54:52;10.70;;;7.97;;
12076;SDS011;12420;42.676;23.262;2023-11-21T03:57:20;11.47;;;7.27;;
12076;SDS011;12420;42.676;23.262;2023-11-21T03:59:47;11.70;;;7.80;;
12076;SDS011;12420;42.676;23.262;2023-11-21T04:02:14;12.33;;;7.63;;
12076;SDS011;12420;42.676;23.262;2023-11-21T04:04:40;11.13;;;7.57;;
12076;SDS011;12420;42.676;23.262;2023-11-21T04:07:08;11.67;;;7.73;;
12076;SDS011;12420;42.676;23.262;2023-11-21T04:09:36;10.53;;;7.40;;
12076;SDS011;12420;42.676;23.262;2023-11-21T04:12:03;10.03;;;7.67;;
12076;SDS011;12420;42.676;23.262;2023-11-21T04:14:30;10.67;;;7.10;;
12076;SDS011;12420;42.676;23.262;2023-11-21T04:16:56;9.40;;;7.27;;
12076;SDS011;12420;42.676;23.262;2023-11-21T04:19:23;10.40;;;7.60;;
12076;SDS011;12420;42.676;23.262;2023-11-21T04:21:50;9.73;;;7.17;;
12076;SDS011;12420;42.676;23.262;2023-11-21T04:24:19;11.13;;;7.70;;
12076;SDS011;12420;42.676;23.262;2023-11-21T04:26:45;13.80;;;8.00;;
12076;SDS011;12420;42.676;23.262;2023-11-21T04:29:12;13.10;;;9.03;;
12076;SDS011;12420;42.676;23.262;2023-11-21T04:31:39;12.20;;;9.10;;
12076;SDS011;12420;42.676;23.262;2023-11-21T04:34:06;17.87;;;9.53;;
12076;SDS011;12420;42.676;23.262;2023-11-21T04:36:33;14.57;;;9.20;;
12076;SDS011;12420;42.676;23.262;2023-11-21T04:39:00;16.97;;;8.53;;
12076;SDS011;12420;42.676;23.262;2023-11-21T04:41:28;14.00;;;8.60;;
12076;SDS011;12420;42.676;23.262;2023-11-21T04:43:56;11.93;;;8.43;;
12076;SDS011;12420;42.676;23.262;2023-11-21T04:46:23;11.77;;;9.00;;
12076;SDS011;12420;42.676;23.262;2023-11-21T04:48:50;14.93;;;8.87;;
12076;SDS011;12420;42.676;23.262;2023-11-21T04:51:17;14.57;;;8.43;;
12076;SDS011;12420;42.676;23.262;2023-11-21T04:53:44;11.87;;;8.93;;
12076;SDS011;12420;42.676;23.262;2023-11-21T04:56:10;17.40;;;10.83;;
12076;SDS011;12420;42.676;23.262;2023-11-21T04:58:39;13.90;;;8.97;;
12076;SDS011;12420;42.676;23.262;2023-11-21T05:01:06;13.63;;;9.70;;
12076;SDS011;12420;42.676;23.262;2023-11-21T05:03:33;14.47;;;10.10;;
12076;SDS011;12420;42.676;23.262;2023-11-21T05:06:00;15.67;;;10.30;;
12076;SDS011;12420;42.676;23.262;2023-11-21T05:08:27;13.73;;;10.20;;
12076;SDS011;12420;42.676;23.262;2023-11-21T05:10:54;17.50;;;11.37;;
12076;SDS011;12420;42.676;23.262;2023-11-21T05:13:21;18.50;;;11.00;;
12076;SDS011;12420;42.676;23.262;2023-11-21T05:15:53;15.43;;;10.83;;
12076;SDS011;12420;42.676;23.262;2023-11-21T05:18:20;16.80;;;10.37;;
12076;SDS011;12420;42.676;23.262;2023-11-21T05:20:47;15.80;;;11.40;;
12076;SDS011;12420;42.676;23.262;2023-11-21T05:23:15;17.67;;;11.53;;
12076;SDS011;12420;42.676;23.262;2023-11-21T05:25:42;17.93;;;11.37;;
12076;SDS011;12420;42.676;23.262;2023-11-21T05:28:11;19.83;;;12.40;;
12076;SDS011;12420;42.676;23.262;2023-11-21T05:30:38;18.23;;;12.10;;
12076;SDS011;12420;42.676;23.262;2023-11-21T05:33:09;20.70;;;12.40;;
12076;SDS011;12420;42.676;23.262;2023-11-21T05:35:37;21.00;;;12.47;;
12076;SDS011;12420;42.676;23.262;2023-11-21T05:38:04;27.07;;;14.80;;
12076;SDS011;12420;42.676;23.262;2023-11-21T05:40:30;24.63;;;15.40;;
12076;SDS011;12420;42.676;23.262;2023-11-21T05:42:58;32.63;;;19.33;;
12076;SDS011;12420;42.676;23.262;2023-11-21T05:45:25;30.90;;;17.60;;
12076;SDS011;12420;42.676;23.262;2023-11-21T05:47:52;28.03;;;17.60;;
12076;SDS011;12420;42.676;23.262;2023-11-21T05:50:20;27.23;;;17.23;;
12076;SDS011;12420;42.676;23.262;2023-11-21T05:52:48;32.50;;;18.70;;
12076;SDS011;12420;42.676;23.262;2023-11-21T05:55:15;28.87;;;19.07;;
12076;SDS011;12420;42.676;23.262;2023-11-21T05:57:42;31.93;;;19.43;;
12076;SDS011;12420;42.676;23.262;2023-11-21T06:00:10;33.47;;;19.37;;
12076;SDS011;12420;42.676;23.262;2023-11-21T06:02:43;35.33;;;20.80;;
12076;SDS011;12420;42.676;23.262;2023-11-21T06:05:10;30.47;;;20.53;;
12076;SDS011;12420;42.676;23.262;2023-11-21T06:07:38;45.27;;;25.70;;
12076;SDS011;12420;42.676;23.262;2023-11-21T06:10:06;43.57;;;25.63;;
12076;SDS011;12420;42.676;23.262;2023-11-21T06:12:36;40.77;;;24.77;;
12076;SDS011;12420;42.676;23.262;2023-11-21T06:15:03;44.83;;;27.07;;
12076;SDS011;12420;42.676;23.262;2023-11-21T06:17:32;38.27;;;25.37;;
12076;SDS011;12420;42.676;23.262;2023-11-21T06:20:01;41.30;;;26.17;;
12076;SDS011;12420;42.676;23.262;2023-11-21T06:22:29;37.47;;;24.07;;
12076;SDS011;12420;42.676;23.262;2023-11-21T06:24:57;40.40;;;24.20;;
12076;SDS011;12420;42.676;23.262;2023-11-21T06:27:24;35.17;;;21.73;;
12076;SDS011;12420;42.676;23.262;2023-11-21T06:29:50;32.23;;;21.33;;
12076;SDS011;12420;42.676;23.262;2023-11-21T06:32:17;39.20;;;21.60;;
12076;SDS011;12420;42.676;23.262;2023-11-21T06:34:45;34.37;;;23.03;;
12076;SDS011;12420;42.676;23.262;2023-11-21T06:37:12;32.57;;;22.17;;
12076;SDS011;12420;42.676;23.262;2023-11-21T06:39:39;44.60;;;21.07;;
12076;SDS011;12420;42.676;23.262;2023-11-21T06:42:08;36.13;;;21.57;;
12076;SDS011;12420;42.676;23.262;2023-11-21T06:44:35;30.37;;;19.53;;
12076;SDS011;12420;42.676;23.262;2023-11-21T06:47:03;40.37;;;20.87;;
12076;SDS011;12420;42.676;23.262;2023-11-21T06:49:30;31.43;;;20.13;;
12076;SDS011;12420;42.676;23.262;2023-11-21T06:51:56;31.83;;;21.27;;
12076;SDS011;12420;42.676;23.262;2023-11-21T06:54:23;31.13;;;20.57;;
12076;SDS011;12420;42.676;23.262;2023-11-21T06:56:50;47.30;;;25.37;;
12076;SDS011;12420;42.676;23.262;2023-11-21T06:59:20;28.80;;;18.87;;
12076;SDS011;12420;42.676;23.262;2023-11-21T07:01:46;30.73;;;18.93;;
12076;SDS011;12420;42.676;23.262;2023-11-21T07:04:14;36.47;;;19.30;;
12076;SDS011;12420;42.676;23.262;2023-11-21T07:06:41;34.27;;;21.93;;
12076;SDS011;12420;42.676;23.262;2023-11-21T07:09:08;38.83;;;22.57;;
12076;SDS011;12420;42.676;23.262;2023-11-21T07:11:36;35.50;;;21.23;;
12076;SDS011;12420;42.676;23.262;2023-11-21T07:14:03;34.77;;;20.70;;
12076;SDS011;12420;42.676;23.262;2023-11-21T07:16:33;33.20;;;19.73;;
12076;SDS011;12420;42.676;23.262;2023-11-21T07:19:02;30.30;;;18.57;;
12076;SDS011;12420;42.676;23.262;2023-11-21T07:21:31;31.60;;;19.00;;
12076;SDS011;12420;42.676;23.262;2023-11-21T07:23:58;33.33;;;21.30;;
12076;SDS011;12420;42.676;23.262;2023-11-21T07:26:24;39.13;;;21.90;;
12076;SDS011;12420;42.676;23.262;2023-11-21T07:28:53;32.87;;;20.27;;
12076;SDS011;12420;42.676;23.262;2023-11-21T07:31:20;34.60;;;20.27;;
12076;SDS011;12420;42.676;23.262;2023-11-21T07:33:49;33.63;;;20.27;;
12076;SDS011;12420;42.676;23.262;2023-11-21T07:36:16;35.67;;;23.43;;
12076;SDS011;12420;42.676;23.262;2023-11-21T07:38:44;39.87;;;25.40;;
12076;SDS011;12420;42.676;23.262;2023-11-21T07:41:11;38.13;;;25.67;;
12076;SDS011;12420;42.676;23.262;2023-11-21T07:43:40;39.53;;;25.27;;
12076;SDS011;12420;42.676;23.262;2023-11-21T07:46:08;41.33;;;26.73;;
12076;SDS011;12420;42.676;23.262;2023-11-21T07:48:35;43.23;;;26.83;;
12076;SDS011;12420;42.676;23.262;2023-11-21T07:51:03;38.93;;;26.33;;
12076;SDS011;12420;42.676;23.262;2023-11-21T07:53:30;45.03;;;27.10;;
12076;SDS011;12420;42.676;23.262;2023-11-21T07:55:57;43.07;;;26.03;;
12076;SDS011;12420;42.676;23.262;2023-11-21T07:58:29;45.80;;;27.17;;
12076;SDS011;12420;42.676;23.262;2023-11-21T08:00:56;40.40;;;26.47;;
12076;SDS011;12420;42.676;23.262;2023-11-21T08:03:23;41.73;;;26.73;;
12076;SDS011;12420;42.676;23.262;2023-11-21T08:05:51;39.73;;;25.57;;
12076;SDS011;12420;42.676;23.262;2023-11-21T08:08:20;39.70;;;25.83;;
12076;SDS011;12420;42.676;23.262;2023-11-21T08:10:47;38.83;;;25.90;;
12076;SDS011;12420;42.676;23.262;2023-11-21T08:13:21;40.33;;;26.80;;
12076;SDS011;12420;42.676;23.262;2023-11-21T08:15:48;43.47;;;26.40;;
12076;SDS011;12420;42.676;23.262;2023-11-21T08:18:16;40.33;;;25.87;;
12076;SDS011;12420;42.676;23.262;2023-11-21T08:20:44;39.63;;;26.57;;
12076;SDS011;12420;42.676;23.262;2023-11-21T08:23:12;43.57;;;26.53;;
12076;SDS011;12420;42.676;23.262;2023-11-21T08:25:43;40.77;;;26.73;;
12076;SDS011;12420;42.676;23.262;2023-11-21T08:28:10;49.93;;;27.60;;
12076;SDS011;12420;42.676;23.262;2023-11-21T08:30:37;40.53;;;25.20;;
12076;SDS011;12420;42.676;23.262;2023-11-21T08:33:03;41.33;;;26.37;;
12076;SDS011;12420;42.676;23.262;2023-11-21T08:35:31;44.43;;;26.43;;
12076;SDS011;12420;42.676;23.262;2023-11-21T08:37:57;38.93;;;25.07;;
12076;SDS011;12420;42.676;23.262;2023-11-21T08:40:24;43.03;;;28.50;;
12076;SDS011;12420;42.676;23.262;2023-11-21T08:42:52;64.70;;;26.80;;
12076;SDS011;12420;42.676;23.262;2023-11-21T08:45:20;48.60;;;28.27;;
12076;SDS011;12420;42.676;23.262;2023-11-21T08:47:47;43.83;;;27.90;;
12076;SDS011;12420;42.676;23.262;2023-11-21T08:50:14;40.00;;;26.77;;
12076;SDS011;12420;42.676;23.262;2023-11-21T08:52:41;44.23;;;25.37;;
12076;SDS011;12420;42.676;23.262;2023-11-21T08:55:08;42.00;;;24.60;;
12076;SDS011;12420;42.676;23.262;2023-11-21T08:57:37;35.90;;;24.00;;
12076;SDS011;12420;42.676;23.262;2023-11-21T09:00:07;34.27;;;21.77;;
12076;SDS011;12420;42.676;23.262;2023-11-21T09:02:36;28.50;;;20.60;;
12076;SDS011;12420;42.676;23.262;2023-11-21T09:05:04;39.37;;;23.53;;
12076;SDS011;12420;42.676;23.262;2023-11-21T09:07:32;38.77;;;22.10;;
12076;SDS011;12420;42.676;23.262;2023-11-21T09:09:59;34.13;;;20.70;;
12076;SDS011;12420;42.676;23.262;2023-11-21T09:12:25;30.63;;;20.43;;
12076;SDS011;12420;42.676;23.262;2023-11-21T09:14:52;32.93;;;19.77;;
12076;SDS011;12420;42.676;23.262;2023-11-21T09:17:20;26.83;;;20.60;;
12076;SDS011;12420;42.676;23.262;2023-11-21T09:19:47;28.43;;;20.13;;
12076;SDS011;12420;42.676;23.262;2023-11-21T09:22:16;28.80;;;20.50;;
12076;SDS011;12420;42.676;23.262;2023-11-21T09:24:43;29.90;;;19.97;;
12076;SDS011;12420;42.676;23.262;2023-11-21T09:27:10;32.47;;;20.33;;
12076;SDS011;12420;42.676;23.262;2023-11-21T09:29:37;32.53;;;20.37;;
12076;SDS011;12420;42.676;23.262;2023-11-21T09:32:05;28.50;;;20.33;;
12076;SDS011;12420;42.676;23.262;2023-11-21T09:34:34;29.50;;;20.13;;
12076;SDS011;12420;42.676;23.262;2023-11-21T09:37:03;31.33;;;20.50;;
12076;SDS011;12420;42.676;23.262;2023-11-21T09:39:31;34.87;;;20.50;;
12076;SDS011;12420;42.676;23.262;2023-11-21T09:42:00;32.13;;;19.80;;
12076;SDS011;12420;42.676;23.262;2023-11-21T09:44:36;29.60;;;19.03;;
12076;SDS011;12420;42.676;23.262;2023-11-21T09:47:15;27.90;;;19.37;;
12076;SDS011;12420;42.676;23.262;2023-11-21T09:49:44;30.03;;;20.13;;
12076;SDS011;12420;42.676;23.262;2023-11-21T09:52:16;29.67;;;21.30;;
12076;SDS011;12420;42.676;23.262;2023-11-21T09:54:50;32.17;;;20.30;;
12076;SDS011;12420;42.676;23.262;2023-11-21T09:57:18;28.63;;;17.43;;
12076;SDS011;12420;42.676;23.262;2023-11-21T09:59:46;25.10;;;15.33;;
12076;SDS011;12420;42.676;23.262;2023-11-21T10:02:16;26.97;;;16.27;;
12076;SDS011;12420;42.676;23.262;2023-11-21T10:04:46;30.00;;;16.37;;
12076;SDS011;12420;42.676;23.262;2023-11-21T10:07:14;21.70;;;14.07;;
12076;SDS011;12420;42.676;23.262;2023-11-21T10:09:45;23.83;;;13.77;;
12076;SDS011;12420;42.676;23.262;2023-11-21T10:12:13;21.47;;;12.70;;
12076;SDS011;12420;42.676;23.262;2023-11-21T10:14:42;20.67;;;12.37;;
12076;SDS011;12420;42.676;23.262;2023-11-21T10:17:10;20.63;;;12.80;;
12076;SDS011;12420;42.676;23.262;2023-11-21T10:19:38;20.10;;;13.30;;
12076;SDS011;12420;42.676;23.262;2023-11-21T10:22:07;19.20;;;12.70;;
12076;SDS011;12420;42.676;23.262;2023-11-21T10:24:34;35.90;;;21.07;;
12076;SDS011;12420;42.676;23.262;2023-11-21T10:27:02;30.60;;;19.57;;
12076;SDS011;12420;42.676;23.262;2023-11-21T10:29:29;28.87;;;18.20;;
12076;SDS011;12420;42.676;23.262;2023-11-21T10:32:00;33.10;;;20.57;;
12076;SDS011;12420;42.676;23.262;2023-11-21T10:34:28;29.60;;;19.33;;
12076;SDS011;12420;42.676;23.262;2023-11-21T10:36:55;34.87;;;22.43;;
12076;SDS011;12420;42.676;23.262;2023-11-21T10:39:24;30.23;;;20.83;;
12076;SDS011;12420;42.676;23.262;2023-11-21T10:41:56;32.60;;;20.83;;
12076;SDS011;12420;42.676;23.262;2023-11-21T10:44:23;26.30;;;18.00;;
12076;SDS011;12420;42.676;23.262;2023-11-21T10:46:51;28.57;;;17.23;;
12076;SDS011;12420;42.676;23.262;2023-11-21T10:49:21;27.50;;;17.67;;
12076;SDS011;12420;42.676;23.262;2023-11-21T10:51:49;27.67;;;17.63;;
12076;SDS011;12420;42.676;23.262;2023-11-21T10:54:18;37.30;;;22.13;;
12076;SDS011;12420;42.676;23.262;2023-11-21T10:56:48;35.07;;;22.90;;
12076;SDS011;12420;42.676;23.262;2023-11-21T10:59:16;37.30;;;24.47;;
12076;SDS011;12420;42.676;23.262;2023-11-21T11:01:44;36.60;;;20.53;;
12076;SDS011;12420;42.676;23.262;2023-11-21T11:04:12;28.83;;;17.57;;
12076;SDS011;12420;42.676;23.262;2023-11-21T11:06:42;24.53;;;16.63;;
12076;SDS011;12420;42.676;23.262;2023-11-21T11:09:10;24.17;;;16.10;;
12076;SDS011;12420;42.676;23.262;2023-11-21T11:11:38;26.47;;;17.43;;
12076;SDS011;12420;42.676;23.262;2023-11-21T11:14:08;35.07;;;19.13;;
12076;SDS011;12420;42.676;23.262;2023-11-21T11:16:37;25.90;;;19.60;;
12076;SDS011;12420;42.676;23.262;2023-11-21T11:19:06;31.90;;;19.60;;
12076;SDS011;12420;42.676;23.262;2023-11-21T11:21:36;27.57;;;18.57;;
12076;SDS011;12420;42.676;23.262;2023-11-21T11:27:09;27.60;;;18.80;;
12076;SDS011;12420;42.676;23.262;2023-11-21T11:29:50;38.77;;;21.23;;
12076;SDS011;12420;42.676;23.262;2023-11-21T11:32:30;33.80;;;19.87;;
12076;SDS011;12420;42.676;23.262;2023-11-21T11:35:09;31.90;;;21.17;;
12076;SDS011;12420;42.676;23.262;2023-11-21T11:37:43;32.60;;;21.00;;
12076;SDS011;12420;42.676;23.262;2023-11-21T11:40:11;26.23;;;18.97;;
12076;SDS011;12420;42.676;23.262;2023-11-21T11:42:38;27.10;;;17.60;;
12076;SDS011;12420;42.676;23.262;2023-11-21T11:45:18;29.30;;;19.47;;
12076;SDS011;12420;42.676;23.262;2023-11-21T11:47:45;32.20;;;19.97;;
12076;SDS011;12420;42.676;23.262;2023-11-21T11:50:14;37.57;;;24.77;;
12076;SDS011;12420;42.676;23.262;2023-11-21T11:52:42;41.63;;;28.13;;
12076;SDS011;12420;42.676;23.262;2023-11-21T11:55:09;48.33;;;29.20;;
12076;SDS011;12420;42.676;23.262;2023-11-21T11:57:39;51.63;;;33.23;;
12076;SDS011;12420;42.676;23.262;2023-11-21T12:00:07;51.70;;;34.33;;
12076;SDS011;12420;42.676;23.262;2023-11-21T12:02:43;50.90;;;31.77;;
12076;SDS011;12420;42.676;23.262;2023-11-21T12:05:13;69.63;;;37.40;;
12076;SDS011;12420;42.676;23.262;2023-11-21T12:07:48;35.43;;;20.90;;
12076;SDS011;12420;42.676;23.262;2023-11-21T12:10:19;58.17;;;29.27;;
12076;SDS011;12420;42.676;23.262;2023-11-21T12:12:48;56.93;;;32.87;;
12076;SDS011;12420;42.676;23.262;2023-11-21T12:15:17;61.30;;;32.47;;
12076;SDS011;12420;42.676;23.262;2023-11-21T12:17:46;36.23;;;22.83;;
12076;SDS011;12420;42.676;23.262;2023-11-21T12:20:14;40.50;;;24.13;;
12076;SDS011;12420;42.676;23.262;2023-11-21T12:22:44;38.37;;;23.03;;
12076;SDS011;12420;42.676;23.262;2023-11-21T12:25:13;42.87;;;26.80;;
12076;SDS011;12420;42.676;23.262;2023-11-21T12:27:43;49.37;;;29.90;;
12076;SDS011;12420;42.676;23.262;2023-11-21T12:30:11;41.03;;;27.23;;
12076;SDS011;12420;42.676;23.262;2023-11-21T12:32:40;37.03;;;23.60;;
12076;SDS011;12420;42.676;23.262;2023-11-21T12:35:09;54.73;;;31.77;;
12076;SDS011;12420;42.676;23.262;2023-11-21T12:37:37;47.83;;;30.83;;
12076;SDS011;12420;42.676;23.262;2023-11-21T12:40:06;48.87;;;30.80;;
12076;SDS011;12420;42.676;23.262;2023-11-21T12:42:37;28.03;;;19.77;;
12076;SDS011;12420;42.676;23.262;2023-11-21T12:45:09;39.00;;;24.40;;
12076;SDS011;12420;42.676;23.262;2023-11-21T12:47:45;25.70;;;18.80;;
12076;SDS011;12420;42.676;23.262;2023-11-21T12:50:14;36.07;;;20.87;;
12076;SDS011;12420;42.676;23.262;2023-11-21T12:52:41;30.93;;;19.23;;
12076;SDS011;12420;42.676;23.262;2023-11-21T12:55:13;25.17;;;17.17;;
12076;SDS011;12420;42.676;23.262;2023-11-21T12:57:42;26.20;;;18.50;;
12076;SDS011;12420;42.676;23.262;2023-11-21T13:00:10;25.60;;;17.43;;
12076;SDS011;12420;42.676;23.262;2023-11-21T13:02:51;35.20;;;21.27;;
12076;SDS011;12420;42.676;23.262;2023-11-21T13:05:25;25.73;;;16.97;;
12076;SDS011;12420;42.676;23.262;2023-11-21T13:07:53;26.80;;;18.57;;
12076;SDS011;12420;42.676;23.262;2023-11-21T13:10:22;27.40;;;18.10;;
12076;SDS011;12420;42.676;23.262;2023-11-21T13:12:54;27.37;;;18.43;;
12076;SDS011;12420;42.676;23.262;2023-11-21T13:15:23;28.23;;;17.37;;
12076;SDS011;12420;42.676;23.262;2023-11-21T13:17:50;25.27;;;16.70;;
12076;SDS011;12420;42.676;23.262;2023-11-21T13:20:18;24.10;;;17.77;;
12076;SDS011;12420;42.676;23.262;2023-11-21T13:22:50;25.33;;;17.73;;
12076;SDS011;12420;42.676;23.262;2023-11-21T13:25:20;26.33;;;17.67;;
12076;SDS011;12420;42.676;23.262;2023-11-21T13:27:47;25.50;;;17.30;;
12076;SDS011;12420;42.676;23.262;2023-11-21T13:30:14;29.60;;;18.20;;
12076;SDS011;12420;42.676;23.262;2023-11-21T13:32:42;28.40;;;18.97;;
12076;SDS011;12420;42.676;23.262;2023-11-21T13:35:09;28.40;;;19.13;;
12076;SDS011;12420;42.676;23.262;2023-11-21T13:37:46;25.43;;;16.43;;
12076;SDS011;12420;42.676;23.262;2023-11-21T13:40:16;21.10;;;16.53;;
12076;SDS011;12420;42.676;23.262;2023-11-21T13:42:47;23.33;;;17.37;;
12076;SDS011;12420;42.676;23.262;2023-11-21T13:45:18;24.87;;;19.20;;
12076;SDS011;12420;42.676;23.262;2023-11-21T13:47:48;24.77;;;17.70;;
12076;SDS011;12420;42.676;23.262;2023-11-21T13:50:16;23.23;;;17.97;;
12076;SDS011;12420;42.676;23.262;2023-11-21T13:52:47;26.90;;;17.33;;
12076;SDS011;12420;42.676;23.262;2023-11-21T13:55:16;27.97;;;18.60;;
12076;SDS011;12420;42.676;23.262;2023-11-21T13:57:43;27.23;;;18.80;;
12076;SDS011;12420;42.676;23.262;2023-11-21T14:00:14;24.03;;;17.97;;
12076;SDS011;12420;42.676;23.262;2023-11-21T14:03:04;27.77;;;19.00;;
12076;SDS011;12420;42.676;23.262;2023-11-21T14:05:41;28.63;;;20.53;;
12076;SDS011;12420;42.676;23.262;2023-11-21T14:08:08;33.17;;;20.70;;
12076;SDS011;12420;42.676;23.262;2023-11-21T14:10:38;28.87;;;20.63;;
12076;SDS011;12420;42.676;23.262;2023-11-21T14:13:09;30.27;;;21.40;;
12076;SDS011;12420;42.676;23.262;2023-11-21T14:15:37;32.87;;;23.00;;
12076;SDS011;12420;42.676;23.262;2023-11-21T14:18:08;31.03;;;23.10;;
12076;SDS011;12420;42.676;23.262;2023-11-21T14:20:37;36.63;;;26.43;;